createdAt,value
2023-03-02T00:01:09.363Z,78.40
2023-03-02T00:03:59.132Z,79.70
2023-03-02T00:06:45.851Z,87.80
2023-03-02T00:09:32.917Z,84.30
2023-03-02T00:12:19.430Z,71.30
2023-03-02T00:15:06.818Z,58.40
2023-03-02T00:17:53.661Z,61.20
2023-03-02T00:20:40.059Z,80.70
2023-03-02T00:23:27.653Z,69.00
2023-03-02T00:26:14.098Z,62.80
2023-03-02T00:29:00.848Z,58.80
2023-03-02T00:31:47.685Z,61.70
2023-03-02T00:34:34.143Z,55.50
2023-03-02T00:37:21.155Z,57.70
2023-03-02T00:40:12.009Z,63.40
2023-03-02T00:42:58.490Z,62.70
2023-03-02T00:45:45.472Z,60.00
2023-03-02T00:48:32.099Z,68.00
2023-03-02T00:51:19.436Z,69.00
2023-03-02T00:54:06.670Z,65.40
2023-03-02T00:56:53.192Z,64.90
2023-03-02T00:59:39.930Z,62.20
2023-03-02T01:02:27.235Z,64.50
2023-03-02T01:05:15.563Z,62.70
2023-03-02T01:08:01.907Z,66.40
2023-03-02T01:10:48.446Z,67.80
2023-03-02T01:13:36.404Z,63.90
2023-03-02T01:16:22.891Z,67.60
2023-03-02T01:19:09.652Z,62.50
2023-03-02T01:21:55.954Z,63.10
2023-03-02T01:24:42.765Z,64.50
2023-03-02T01:27:29.598Z,66.00
2023-03-02T01:30:17.370Z,69.10
2023-03-02T01:33:03.863Z,66.60
2023-03-02T01:35:50.469Z,65.80
2023-03-02T01:38:37.148Z,67.10
2023-03-02T01:41:23.930Z,70.50
2023-03-02T01:44:48.644Z,76.40
2023-03-02T01:47:38.767Z,74.60
2023-03-02T01:50:26.738Z,73.60
2023-03-02T01:53:15.845Z,75.90
2023-03-02T01:56:04.163Z,76.70
2023-03-02T01:58:56.471Z,80.10
2023-03-02T02:01:47.428Z,79.70
2023-03-02T02:04:37.928Z,73.20
2023-03-02T02:07:24.565Z,79.50
2023-03-02T02:10:12.302Z,81.30
2023-03-02T02:12:58.892Z,72.70
2023-03-02T02:15:45.369Z,72.60
2023-03-02T02:18:34.176Z,73.40
2023-03-02T02:21:22.752Z,73.80
2023-03-02T02:24:22.305Z,75.00
2023-03-02T02:27:10.656Z,69.40
2023-03-02T02:29:58.579Z,71.70
2023-03-02T02:32:48.572Z,70.80
2023-03-02T02:35:38.694Z,71.50
2023-03-02T02:38:25.801Z,68.80
2023-03-02T02:41:20.136Z,65.80
2023-03-02T02:44:07.120Z,65.20
2023-03-02T02:46:53.530Z,64.60
2023-03-02T02:49:41.914Z,67.70
2023-03-02T02:52:29.713Z,67.50
2023-03-02T02:55:21.488Z,66.60
2023-03-02T02:58:20.513Z,62.20
2023-03-02T03:01:07.529Z,67.60
2023-03-02T03:03:57.995Z,65.60
2023-03-02T03:07:13.610Z,67.50
2023-03-02T03:10:35.009Z,72.00
2023-03-02T03:13:21.584Z,70.60
2023-03-02T03:16:11.415Z,69.80
2023-03-02T03:19:05.578Z,75.00
2023-03-02T03:21:56.075Z,77.30
2023-03-02T03:24:44.467Z,70.10
2023-03-02T03:27:30.905Z,77.40
2023-03-02T03:30:18.236Z,74.00
2023-03-02T03:33:05.041Z,72.20
2023-03-02T03:35:51.624Z,73.90
2023-03-02T03:38:39.366Z,73.10
2023-03-02T03:41:26.589Z,74.60
2023-03-02T03:44:13.488Z,74.70
2023-03-02T03:47:00.642Z,70.80
2023-03-02T03:49:47.088Z,71.10
2023-03-02T03:52:33.909Z,74.00
2023-03-02T03:55:20.774Z,69.20
2023-03-02T03:58:07.607Z,77.40
2023-03-02T04:00:54.085Z,75.20
2023-03-02T04:03:40.704Z,77.00
2023-03-02T04:06:27.684Z,79.70
2023-03-02T04:09:15.570Z,74.00
2023-03-02T04:12:03.902Z,76.30
2023-03-02T04:14:50.413Z,74.10
2023-03-02T04:17:37.084Z,76.90
2023-03-02T04:20:27.567Z,74.30
2023-03-02T04:23:14.979Z,79.70
2023-03-02T04:26:05.124Z,79.60
2023-03-02T04:28:51.840Z,81.40
2023-03-02T04:31:39.190Z,78.40
2023-03-02T04:34:26.630Z,77.10
2023-03-02T04:37:13.471Z,81.50
2023-03-02T04:40:00.412Z,78.00
2023-03-02T04:42:47.424Z,76.20
2023-03-02T04:45:34.363Z,72.10
2023-03-02T04:48:22.504Z,70.80
2023-03-02T04:51:24.132Z,70.30
2023-03-02T04:54:21.718Z,74.50
2023-03-02T04:57:08.643Z,72.50
2023-03-02T04:59:54.955Z,68.20
2023-03-02T05:02:41.877Z,70.40
2023-03-02T05:05:29.613Z,64.60
2023-03-02T05:08:17.041Z,63.20
2023-03-02T05:11:04.489Z,61.30
2023-03-02T05:13:53.632Z,63.00
2023-03-02T05:16:41.745Z,57.80
2023-03-02T05:19:28.603Z,59.40
2023-03-02T05:22:15.335Z,59.20
2023-03-02T05:25:02.214Z,60.60
2023-03-02T05:27:49.533Z,56.30
2023-03-02T05:30:37.713Z,54.90
2023-03-02T05:33:25.463Z,55.40
2023-03-02T05:36:12.248Z,58.10
2023-03-02T05:38:58.828Z,58.10
2023-03-02T05:41:46.419Z,58.10
2023-03-02T05:44:33.185Z,57.80
2023-03-02T05:47:20.392Z,57.70
2023-03-02T05:50:07.602Z,57.80
2023-03-02T05:52:54.360Z,57.20
2023-03-02T05:55:42.019Z,59.60
2023-03-02T05:58:28.928Z,54.40
2023-03-02T06:01:15.799Z,57.40
2023-03-02T06:04:02.872Z,56.80
2023-03-02T06:06:49.581Z,59.20
2023-03-02T06:09:37.147Z,62.10
2023-03-02T06:12:24.373Z,55.60
2023-03-02T06:15:11.479Z,56.10
2023-03-02T06:17:58.172Z,57.10
2023-03-02T06:20:45.189Z,54.70
2023-03-02T06:23:31.572Z,57.90
2023-03-02T06:26:18.092Z,60.90
2023-03-02T06:29:05.683Z,57.10
2023-03-02T06:31:52.336Z,61.40
2023-03-02T06:34:38.844Z,59.90
2023-03-02T06:37:25.742Z,59.20
2023-03-02T06:40:14.098Z,60.50
2023-03-02T06:43:03.867Z,60.20
2023-03-02T06:45:51.122Z,60.40
2023-03-02T06:48:38.261Z,60.90
2023-03-02T06:51:24.667Z,59.60
2023-03-02T06:54:11.563Z,59.80
2023-03-02T06:56:58.332Z,58.20
2023-03-02T06:59:45.033Z,59.60
2023-03-02T07:02:31.897Z,60.20
2023-03-02T07:05:19.549Z,59.40
2023-03-02T07:08:05.951Z,62.00
2023-03-02T07:10:52.657Z,60.70
2023-03-02T07:13:40.338Z,57.90
2023-03-02T07:16:27.720Z,59.90
2023-03-02T07:19:20.648Z,58.00
2023-03-02T07:22:10.478Z,58.70
2023-03-02T07:24:57.268Z,61.10
2023-03-02T07:32:07.078Z,60.90
2023-03-02T07:34:54.314Z,63.50
2023-03-02T07:37:44.201Z,64.80
2023-03-02T07:40:30.629Z,61.40
2023-03-02T07:43:17.678Z,60.10
2023-03-02T07:46:05.079Z,59.70
2023-03-02T07:48:52.005Z,56.70
2023-03-02T07:51:39.184Z,59.40
2023-03-02T07:54:27.803Z,55.90
2023-03-02T07:57:54.431Z,51.40
2023-03-02T08:00:42.684Z,51.50
2023-03-02T08:03:30.148Z,50.90
2023-03-02T08:06:19.840Z,48.70
2023-03-02T08:09:06.313Z,45.90
2023-03-02T08:11:52.797Z,47.30
2023-03-02T08:16:06.798Z,39.50
2023-03-02T08:19:41.893Z,37.70
2023-03-02T08:33:43.149Z,36.50
2023-03-02T09:14:43.845Z,14.30
2023-03-02T09:17:42.737Z,17.80
2023-03-02T09:22:11.529Z,18.10
2023-03-02T09:50:23.396Z,5.40
2023-03-02T09:58:32.398Z,8.70
2023-03-02T10:01:28.691Z,8.60
2023-03-02T10:17:22.691Z,14.90
2023-03-02T11:00:32.043Z,21.90
2023-03-02T11:55:47.817Z,20.20
2023-03-02T12:23:24.291Z,13.10
2023-03-02T12:26:18.956Z,17.10
2023-03-02T12:29:10.658Z,12.90
2023-03-02T12:31:57.238Z,14.10
2023-03-02T12:34:51.290Z,12.30
2023-03-02T12:37:57.641Z,14.90
2023-03-02T12:52:00.641Z,16.00
2023-03-02T12:55:22.399Z,14.10
2023-03-02T12:58:17.914Z,13.90
2023-03-02T13:01:04.578Z,15.60
2023-03-02T13:10:55.063Z,13.70
2023-03-02T13:13:45.321Z,14.30
2023-03-02T13:16:36.893Z,14.00
2023-03-02T13:19:27.720Z,13.90
2023-03-02T13:22:15.116Z,13.00
2023-03-02T13:25:06.268Z,14.60
2023-03-02T13:28:07.995Z,15.10
2023-03-02T13:31:07.702Z,15.30
2023-03-02T13:33:57.221Z,17.10
2023-03-02T13:36:53.817Z,15.40
2023-03-02T13:41:19.428Z,15.00
2023-03-02T13:44:34.300Z,14.50
2023-03-02T13:47:35.996Z,17.40
2023-03-02T14:02:25.960Z,16.50
2023-03-02T15:11:05.685Z,13.70
2023-03-02T15:14:44.698Z,14.90
2023-03-02T15:17:29.932Z,12.50
2023-03-02T15:20:34.601Z,13.60
2023-03-02T15:24:33.693Z,13.40
2023-03-02T15:28:56.167Z,11.60
2023-03-02T15:37:22.012Z,13.00
2023-03-02T15:40:08.147Z,18.20
2023-03-02T15:42:55.916Z,17.90
2023-03-02T15:45:45.879Z,17.30
2023-03-02T15:48:31.038Z,17.50
2023-03-02T15:52:36.529Z,15.40
2023-03-02T15:55:22.106Z,17.60
2023-03-02T15:58:10.956Z,17.40
2023-03-02T16:00:56.417Z,18.20
2023-03-02T16:04:02.106Z,17.20
2023-03-02T16:07:47.645Z,19.00
2023-03-02T16:11:10.368Z,19.30
2023-03-02T16:14:07.261Z,21.70
2023-03-02T16:17:19.531Z,24.30
2023-03-02T16:20:12.292Z,28.60
2023-03-02T16:23:04.054Z,25.80
2023-03-02T16:25:52.834Z,25.60
2023-03-02T16:28:39.774Z,20.80
2023-03-02T16:31:28.533Z,25.50
2023-03-02T16:34:37.265Z,25.50
2023-03-02T16:37:24.399Z,22.10
2023-03-02T16:40:17.124Z,23.50
2023-03-02T16:43:03.626Z,18.50
2023-03-02T16:45:51.799Z,19.10
2023-03-02T16:48:38.620Z,17.00
2023-03-02T16:51:38.622Z,18.60
2023-03-02T16:55:52.785Z,17.90
2023-03-02T17:13:19.840Z,16.40
2023-03-02T17:16:05.823Z,17.30
2023-03-02T17:24:57.658Z,20.70
2023-03-02T17:27:56.688Z,18.60
2023-03-02T17:43:04.279Z,17.90
2023-03-02T17:47:14.636Z,21.40
2023-03-02T17:50:11.318Z,18.00
2023-03-02T17:54:07.551Z,28.40
2023-03-02T17:58:05.286Z,28.00
2023-03-02T18:02:10.422Z,22.80
2023-03-02T18:05:41.536Z,27.40
2023-03-02T18:08:28.028Z,28.80
2023-03-02T18:11:17.566Z,40.20
2023-03-02T18:14:04.399Z,37.60
2023-03-02T18:16:51.213Z,35.10
2023-03-02T18:19:38.158Z,32.20
2023-03-02T18:22:25.409Z,33.20
2023-03-02T18:25:13.056Z,36.00
2023-03-02T18:29:52.482Z,32.10
2023-03-02T18:33:26.945Z,30.00
2023-03-02T18:37:35.121Z,27.50
2023-03-02T18:41:05.273Z,34.60
2023-03-02T18:45:18.212Z,41.90
2023-03-02T18:48:54.740Z,40.40
2023-03-02T18:51:45.591Z,36.00
2023-03-02T18:54:32.638Z,44.60
2023-03-02T18:57:19.733Z,47.40
2023-03-02T19:00:10.017Z,52.50
2023-03-02T19:03:01.741Z,227.40
2023-03-02T19:05:49.514Z,126.20
2023-03-02T19:08:37.204Z,55.30
2023-03-02T19:11:24.121Z,60.70
2023-03-02T19:14:11.217Z,47.90
2023-03-02T19:16:58.381Z,51.10
2023-03-02T19:19:49.001Z,47.50
2023-03-02T19:22:35.447Z,53.50
2023-03-02T19:25:22.655Z,63.90
2023-03-02T19:28:09.821Z,80.20
2023-03-02T19:30:58.617Z,69.40
2023-03-02T19:33:48.736Z,69.20
2023-03-02T19:36:37.614Z,80.20
2023-03-02T19:39:24.248Z,84.00
2023-03-02T19:42:11.486Z,89.80
2023-03-02T19:44:58.211Z,87.70
2023-03-02T19:47:45.979Z,82.60
2023-03-02T19:50:45.927Z,81.00
2023-03-02T19:53:43.080Z,88.60
2023-03-02T20:00:49.734Z,89.00
2023-03-02T20:09:41.435Z,79.70
2023-03-02T20:17:14.057Z,83.00
2023-03-02T20:20:07.326Z,86.00
2023-03-02T20:23:25.452Z,82.60
2023-03-02T20:26:29.543Z,89.70
2023-03-02T20:29:28.394Z,97.00
2023-03-02T20:32:16.358Z,98.70
2023-03-02T20:35:08.132Z,97.10
2023-03-02T20:38:00.998Z,88.00
2023-03-02T20:41:11.075Z,90.00
2023-03-02T20:43:56.685Z,89.80
2023-03-02T20:47:19.694Z,88.20
2023-03-02T20:54:25.301Z,108.00
2023-03-02T20:56:49.715Z,91.30
2023-03-02T20:57:17.536Z,98.00
2023-03-02T21:00:39.476Z,107.60
2023-03-02T21:03:31.723Z,106.30
2023-03-02T21:06:25.094Z,106.00
2023-03-02T21:09:14.511Z,103.00
2023-03-02T21:12:01.944Z,109.10
2023-03-02T21:14:48.909Z,110.00
2023-03-02T21:17:35.962Z,112.20
2023-03-02T21:20:26.373Z,119.30
2023-03-02T21:26:35.921Z,121.30
2023-03-02T21:29:26.137Z,120.10
2023-03-02T21:32:11.256Z,109.90
2023-03-02T21:34:56.357Z,113.30
2023-03-02T21:37:45.047Z,142.20
2023-03-02T21:40:37.047Z,134.10
2023-03-02T21:43:37.116Z,128.00
2023-03-02T21:46:24.439Z,129.60
2023-03-02T21:49:15.660Z,124.00
2023-03-02T21:52:01.232Z,126.10
2023-03-02T21:54:56.259Z,128.50
2023-03-02T21:58:09.437Z,125.70
2023-03-02T22:00:55.560Z,129.50
2023-03-02T22:03:42.015Z,127.60
2023-03-02T22:06:32.280Z,130.80
2023-03-02T22:09:23.563Z,134.90
2023-03-02T22:12:13.477Z,135.50
2023-03-02T22:15:05.643Z,123.70
2023-03-02T22:17:52.472Z,145.00
2023-03-02T22:20:50.886Z,134.20
2023-03-02T22:23:37.899Z,131.30
2023-03-02T22:26:25.484Z,132.10
2023-03-02T22:29:34.113Z,126.50
2023-03-02T22:32:34.111Z,128.70
2023-03-02T22:35:22.646Z,130.70
2023-03-02T22:38:16.190Z,131.90
2023-03-02T22:41:02.407Z,128.50
2023-03-02T22:43:49.018Z,137.70
2023-03-02T22:46:34.398Z,147.30
2023-03-02T22:49:22.784Z,146.00
2023-03-02T22:52:19.651Z,134.10
2023-03-02T22:55:30.813Z,142.70
2023-03-02T22:58:22.226Z,140.70
2023-03-02T23:01:25.727Z,124.20
2023-03-02T23:04:25.860Z,138.50
2023-03-02T23:07:38.204Z,121.30
2023-03-02T23:10:23.859Z,140.50
2023-03-02T23:13:13.636Z,131.00
2023-03-02T23:16:02.171Z,134.40
2023-03-02T23:18:48.426Z,115.10
2023-03-02T23:21:47.739Z,114.10
2023-03-02T23:24:33.783Z,134.30
2023-03-02T23:27:19.229Z,100.50
2023-03-02T23:30:05.464Z,111.40
2023-03-02T23:34:40.292Z,78.30
2023-03-02T23:37:28.657Z,96.60
2023-03-02T23:40:17.722Z,104.10
2023-03-02T23:43:04.500Z,98.00
2023-03-02T23:45:51.452Z,127.50
2023-03-02T23:48:38.340Z,125.70
2023-03-02T23:51:27.271Z,118.30
2023-03-02T23:54:14.755Z,122.20
2023-03-02T23:57:01.669Z,117.40
2023-03-02T23:59:48.173Z,108.60
